Pays
Station

 

Conditions  météo  pour  Springbok  -  Afrique Du Sud    Afrique Du Sud

  
16 °C
    
 
 

METAR pour Springbok :

FASB 190654Z 15005KT 9999 SCT020 16/08 Q1019

 

Voici le bulletin pour Springbok - Afrique Du Sud.
 
Le bulletin a été fait il y a 5 heures et 34 minutes, à 06:54 UTC .
Le vent soufflait à la vitesse de 2.6 mètres par seconde de Sud/Sud-est (150°).
 
La température était de 16 °C, avec un point de rosée à 8 °C.
La pression atmosphérique était de 1019 hPa.
L'humidité relative était de 59.0%.
 
Il y avait 3 à 4/8ème de nébulosité à une hauteur de 610 mètres.
 
La visibilité globale était de supérieure à 10 kilomètres.
 

 
 
 

Pays :   A   B   C   D   E   F   G   H   I   J   K   L   M   N   O   P   Q   R   S   T   U   V   W   Y   Z

 

Partenaires :  Info Météo avec Met'info
Météo Marine avec MeteoMarine.net
Infos Site  |  Infos Légales  |  Crédits  |  Confidentialité
Contactez-nous  |  Ajouter aux favoris
© 2013-2018 METAR - Tous droits réservés